Time;durP1;ratioP1;P1;durP2;ratioP2;P2;SDS_P1;SDS_P2;PMS_P1;PMS_P2;Temp;Humidity;BMP_temperature;BMP_pressure;BME280_temperature;BME280_humidity;BME280_pressure;Samples;Min_cycle;Max_cycle;Signal;HPM_P1;HPM_P2
2023/12/15 00:00:56;;;;;;;;;;;19.60;56.50;;;;;;5035767;28;19925;-62
2023/12/15 00:03:21;;;;;;;;;;;19.60;56.50;;;;;;5035566;28;19982;-62
2023/12/15 00:05:46;;;;;;;;;;;19.60;56.50;;;;;;5041178;28;19936;-63
2023/12/15 00:08:12;;;;;;;;;;;19.60;56.50;;;;;;5055837;28;20304;-62
2023/12/15 00:10:38;;;;;;;;;;;19.60;56.50;;;;;;5072966;28;20280;-63
2023/12/15 00:13:03;;;;;;;;;;;19.60;56.50;;;;;;5064629;28;20011;-62
2023/12/15 00:15:29;;;;;;;;;;;19.60;56.50;;;;;;5035985;28;19998;-63
2023/12/15 00:17:54;;;;;;;;;;;19.60;56.50;;;;;;5034698;28;20026;-63
2023/12/15 00:20:20;;;;;;;;;;;19.60;56.50;;;;;;5055126;28;19924;-62
2023/12/15 00:22:45;;;;;;;;;;;19.60;56.50;;;;;;5073462;28;19924;-63
2023/12/15 00:25:11;;;;;;;;;;;19.50;56.40;;;;;;5054450;28;20107;-62
2023/12/15 00:27:36;;;;;;;;;;;19.50;56.40;;;;;;5055405;28;19925;-63
2023/12/15 00:30:03;;;;;;;;;;;19.50;56.40;;;;;;5054334;28;19944;-62
2023/12/15 00:32:28;;;;;;;;;;;19.50;56.40;;;;;;5055631;28;20376;-63
2023/12/15 00:34:54;;;;;;;;;;;19.50;56.40;;;;;;5064456;28;19925;-63
2023/12/15 00:37:20;;;;;;;;;;;19.50;56.40;;;;;;5034580;28;19925;-62
2023/12/15 00:39:46;;;;;;;;;;;19.50;56.40;;;;;;5034974;28;20285;-63
2023/12/15 00:42:12;;;;;;;;;;;19.50;56.50;;;;;;5034782;28;20471;-62
2023/12/15 00:44:37;;;;;;;;;;;19.50;56.40;;;;;;5052421;28;20016;-63
2023/12/15 00:47:03;;;;;;;;;;;19.50;56.40;;;;;;5053122;28;19935;-62
2023/12/15 00:49:28;;;;;;;;;;;19.50;56.50;;;;;;5053333;28;19973;-63
2023/12/15 00:51:54;;;;;;;;;;;19.40;56.40;;;;;;5034490;28;19925;-63
2023/12/15 00:54:19;;;;;;;;;;;19.40;56.40;;;;;;5035296;28;19936;-62
2023/12/15 00:56:45;;;;;;;;;;;19.40;56.40;;;;;;5035313;28;19932;-62
2023/12/15 00:59:10;;;;;;;;;;;19.40;56.40;;;;;;5034336;28;20469;-62
2023/12/15 01:01:36;;;;;;;;;;;19.40;56.40;;;;;;5052348;28;19925;-62
2023/12/15 01:04:01;;;;;;;;;;;19.40;56.50;;;;;;5032785;28;19948;-62
2023/12/15 01:06:27;;;;;;;;;;;19.40;56.40;;;;;;5042494;28;19924;-62
2023/12/15 01:08:52;;;;;;;;;;;19.40;56.40;;;;;;5051851;28;20011;-62
2023/12/15 01:11:18;;;;;;;;;;;19.40;56.40;;;;;;5070583;28;20394;-62
2023/12/15 01:13:43;;;;;;;;;;;19.40;56.40;;;;;;5052245;28;19939;-62
2023/12/15 01:16:09;;;;;;;;;;;19.30;56.40;;;;;;5052829;28;19989;-62
2023/12/15 01:18:34;;;;;;;;;;;19.40;56.40;;;;;;5070605;28;19924;-62
2023/12/15 01:21:00;;;;;;;;;;;19.30;56.40;;;;;;5053088;28;19982;-63
2023/12/15 01:23:25;;;;;;;;;;;19.30;56.40;;;;;;5054823;28;19979;-62
2023/12/15 01:25:51;;;;;;;;;;;19.30;56.40;;;;;;5053904;28;19971;-63
2023/12/15 01:28:16;;;;;;;;;;;19.30;56.40;;;;;;5053708;28;20300;-62
2023/12/15 01:30:42;;;;;;;;;;;19.30;56.40;;;;;;5054682;28;19931;-63
2023/12/15 01:33:07;;;;;;;;;;;19.30;56.40;;;;;;5054774;28;19924;-62
2023/12/15 01:35:33;;;;;;;;;;;19.30;56.40;;;;;;5054131;28;20372;-63
2023/12/15 01:37:58;;;;;;;;;;;19.30;56.40;;;;;;5053904;28;19931;-62
2023/12/15 01:40:24;;;;;;;;;;;19.30;56.40;;;;;;5053059;28;19931;-62
2023/12/15 01:42:49;;;;;;;;;;;19.20;56.30;;;;;;5072561;28;19930;-62
2023/12/15 01:45:14;;;;;;;;;;;19.20;56.40;;;;;;5072114;28;19928;-62
2023/12/15 01:47:40;;;;;;;;;;;19.20;56.40;;;;;;5053688;28;19932;-63
2023/12/15 01:50:06;;;;;;;;;;;19.20;56.30;;;;;;5054560;28;20018;-62
2023/12/15 01:52:32;;;;;;;;;;;19.20;56.40;;;;;;5055066;28;20352;-63
2023/12/15 01:54:57;;;;;;;;;;;19.20;56.40;;;;;;5052364;28;19925;-62
2023/12/15 01:57:23;;;;;;;;;;;19.20;56.40;;;;;;5058154;28;20050;-62
2023/12/15 01:59:49;;;;;;;;;;;19.20;56.40;;;;;;5058113;28;19924;-62
2023/12/15 02:02:14;;;;;;;;;;;19.20;56.40;;;;;;5075193;28;19963;-63
2023/12/15 02:04:40;;;;;;;;;;;19.20;56.40;;;;;;5058523;28;19925;-63
2023/12/15 02:07:06;;;;;;;;;;;19.20;57.10;;;;;;5057892;28;19924;-63
2023/12/15 02:09:31;;;;;;;;;;;19.10;56.30;;;;;;5041391;28;19925;-62
2023/12/15 02:11:57;;;;;;;;;;;19.10;56.40;;;;;;5037925;28;19925;-63
2023/12/15 02:14:22;;;;;;;;;;;19.10;56.40;;;;;;5038063;28;19964;-62
2023/12/15 02:16:48;;;;;;;;;;;19.10;56.40;;;;;;5055353;28;20011;-62
2023/12/15 02:19:13;;;;;;;;;;;19.10;56.40;;;;;;5038088;28;19935;-63
2023/12/15 02:21:39;;;;;;;;;;;19.10;56.40;;;;;;5049116;28;19978;-62
2023/12/15 02:24:04;;;;;;;;;;;19.10;56.40;;;;;;5055343;28;20403;-62
2023/12/15 02:26:30;;;;;;;;;;;19.10;56.40;;;;;;5057116;28;19924;-63
2023/12/15 02:28:55;;;;;;;;;;;19.10;56.50;;;;;;5056959;28;19931;-62
2023/12/15 02:31:21;;;;;;;;;;;19.10;56.50;;;;;;5056204;28;19925;-62
2023/12/15 02:33:46;;;;;;;;;;;19.10;56.50;;;;;;5057497;28;20327;-62
2023/12/15 02:36:21;;;;;;;;;;;19.00;56.40;;;;;;5049039;28;19931;-62
2023/12/15 02:38:47;;;;;;;;;;;19.10;56.50;;;;;;5054830;28;19924;-62
2023/12/15 02:41:12;;;;;;;;;;;19.00;56.40;;;;;;5036611;28;19979;-62
2023/12/15 02:43:38;;;;;;;;;;;19.00;56.50;;;;;;5055091;28;19970;-62
2023/12/15 02:46:04;;;;;;;;;;;19.00;56.50;;;;;;5037657;28;19983;-62
2023/12/15 02:48:29;;;;;;;;;;;19.00;56.50;;;;;;5054878;28;19925;-63
2023/12/15 02:50:55;;;;;;;;;;;19.00;56.50;;;;;;5036638;28;20041;-62
2023/12/15 02:53:20;;;;;;;;;;;19.00;56.50;;;;;;5037638;28;19984;-62
2023/12/15 02:55:46;;;;;;;;;;;19.00;56.50;;;;;;5037064;28;19999;-62
2023/12/15 02:58:11;;;;;;;;;;;19.00;56.50;;;;;;5036630;28;19970;-62
2023/12/15 03:00:37;;;;;;;;;;;19.00;56.50;;;;;;5041341;28;19924;-61
2023/12/15 03:03:02;;;;;;;;;;;19.00;56.50;;;;;;5073245;28;19924;-62
2023/12/15 03:05:28;;;;;;;;;;;19.00;56.60;;;;;;5074005;28;19947;-62
2023/12/15 03:07:53;;;;;;;;;;;19.00;56.50;;;;;;5056473;28;19929;-62
2023/12/15 03:10:19;;;;;;;;;;;19.00;56.50;;;;;;5056166;28;19999;-62
2023/12/15 03:12:44;;;;;;;;;;;19.00;56.50;;;;;;5074404;28;19920;-62
2023/12/15 03:15:10;;;;;;;;;;;19.00;56.60;;;;;;5056945;28;19930;-62
2023/12/15 03:17:35;;;;;;;;;;;18.90;56.60;;;;;;5074836;28;20307;-62
2023/12/15 03:20:02;;;;;;;;;;;19.00;56.60;;;;;;5072214;28;19960;-62
2023/12/15 03:22:27;;;;;;;;;;;18.90;56.60;;;;;;5037273;28;19932;-62
2023/12/15 03:24:52;;;;;;;;;;;19.00;56.60;;;;;;5054101;28;19925;-62
2023/12/15 03:27:18;;;;;;;;;;;18.90;56.50;;;;;;5048902;28;19964;-63
2023/12/15 03:29:43;;;;;;;;;;;18.90;56.60;;;;;;5074595;28;19943;-62
2023/12/15 03:32:09;;;;;;;;;;;18.90;56.60;;;;;;5056283;28;19932;-62
2023/12/15 03:34:34;;;;;;;;;;;18.90;56.50;;;;;;5074028;28;19925;-63
2023/12/15 03:37:00;;;;;;;;;;;18.90;56.60;;;;;;5056668;28;20275;-62
2023/12/15 03:39:25;;;;;;;;;;;18.90;56.60;;;;;;5054585;28;19935;-62
2023/12/15 03:41:51;;;;;;;;;;;18.90;56.60;;;;;;5052723;28;20268;-62
2023/12/15 03:44:16;;;;;;;;;;;18.90;56.60;;;;;;5054232;28;19925;-62
2023/12/15 03:46:42;;;;;;;;;;;19.00;56.60;;;;;;5054396;28;19928;-62
2023/12/15 03:49:07;;;;;;;;;;;19.00;56.60;;;;;;5053381;28;19931;-62
2023/12/15 03:51:33;;;;;;;;;;;19.00;56.60;;;;;;5059272;28;19968;-62
2023/12/15 03:53:58;;;;;;;;;;;18.90;56.50;;;;;;5072836;28;19934;-62
2023/12/15 03:56:24;;;;;;;;;;;19.00;56.60;;;;;;5073950;28;20437;-62
2023/12/15 03:58:50;;;;;;;;;;;19.00;56.60;;;;;;5074291;28;20003;-62
2023/12/15 04:01:18;;;;;;;;;;;19.00;56.60;;;;;;5073089;28;20082;-62
2023/12/15 04:03:44;;;;;;;;;;;19.00;56.60;;;;;;5073997;28;19932;-63
2023/12/15 04:06:09;;;;;;;;;;;19.00;56.50;;;;;;5055650;28;19924;-62
2023/12/15 04:08:35;;;;;;;;;;;19.00;56.50;;;;;;5054741;28;20003;-63
2023/12/15 04:11:00;;;;;;;;;;;19.10;56.60;;;;;;5054854;28;20395;-63
2023/12/15 04:13:26;;;;;;;;;;;19.00;56.50;;;;;;5073616;28;19935;-62
2023/12/15 04:15:51;;;;;;;;;;;19.10;56.50;;;;;;5054681;28;20384;-62
2023/12/15 04:18:17;;;;;;;;;;;19.10;56.50;;;;;;5055253;28;19970;-63
2023/12/15 04:20:42;;;;;;;;;;;19.10;56.50;;;;;;5055640;28;19924;-62
2023/12/15 04:23:08;;;;;;;;;;;19.10;56.50;;;;;;5054462;28;19924;-62
2023/12/15 04:25:33;;;;;;;;;;;19.20;56.50;;;;;;5073438;28;19998;-63
2023/12/15 04:27:59;;;;;;;;;;;19.20;56.50;;;;;;5055389;28;19964;-62
2023/12/15 04:30:24;;;;;;;;;;;19.20;56.50;;;;;;5054679;28;19971;-62
2023/12/15 04:32:50;;;;;;;;;;;19.20;56.40;;;;;;5055684;28;19930;-63
2023/12/15 04:35:15;;;;;;;;;;;19.20;56.50;;;;;;5054855;28;19970;-62
2023/12/15 04:37:44;;;;;;;;;;;19.20;56.50;;;;;;5072351;28;19924;-62
2023/12/15 04:40:10;;;;;;;;;;;19.30;56.50;;;;;;5054808;28;19936;-62
2023/12/15 04:42:36;;;;;;;;;;;19.30;56.50;;;;;;5055597;28;20291;-62
2023/12/15 04:45:06;;;;;;;;;;;19.30;56.50;;;;;;5072299;28;19924;-62
2023/12/15 04:47:32;;;;;;;;;;;19.30;56.50;;;;;;5073274;28;19978;-62
2023/12/15 04:50:00;;;;;;;;;;;19.30;56.50;;;;;;5072935;28;20003;-62
2023/12/15 04:52:25;;;;;;;;;;;19.30;56.40;;;;;;5054181;28;20061;-62
2023/12/15 04:54:51;;;;;;;;;;;19.40;56.50;;;;;;5055105;28;20007;-62
2023/12/15 04:57:16;;;;;;;;;;;19.40;56.50;;;;;;5072307;28;20312;-63
2023/12/15 04:59:42;;;;;;;;;;;19.40;56.50;;;;;;5055141;28;20376;-62
2023/12/15 05:02:07;;;;;;;;;;;19.40;56.40;;;;;;5042505;28;19929;-63
2023/12/15 05:04:33;;;;;;;;;;;19.40;56.50;;;;;;5071125;28;20702;-62
2023/12/15 05:06:59;;;;;;;;;;;19.40;56.40;;;;;;5054183;28;19987;-62
2023/12/15 05:09:24;;;;;;;;;;;19.50;56.40;;;;;;5055065;28;19932;-62
2023/12/15 05:11:50;;;;;;;;;;;19.50;56.40;;;;;;5072214;28;20012;-62
2023/12/15 05:14:15;;;;;;;;;;;19.50;56.40;;;;;;5072699;28;20360;-62
2023/12/15 05:16:41;;;;;;;;;;;19.50;56.30;;;;;;5054443;28;20019;-62
2023/12/15 05:19:06;;;;;;;;;;;19.50;56.40;;;;;;5054181;28;19932;-62
2023/12/15 05:21:32;;;;;;;;;;;19.50;56.30;;;;;;5054687;28;19960;-62
2023/12/15 05:23:58;;;;;;;;;;;19.50;56.30;;;;;;5072730;28;19932;-62
2023/12/15 05:26:25;;;;;;;;;;;19.50;56.30;;;;;;5050454;28;19950;-62
2023/12/15 05:28:51;;;;;;;;;;;19.50;56.30;;;;;;5051584;28;19924;-62
2023/12/15 05:31:17;;;;;;;;;;;19.60;56.40;;;;;;5053540;28;19987;-62
2023/12/15 05:33:42;;;;;;;;;;;19.60;56.30;;;;;;5055829;28;20028;-62
2023/12/15 05:36:08;;;;;;;;;;;19.60;56.30;;;;;;5056174;28;19994;-62
2023/12/15 05:38:33;;;;;;;;;;;19.60;56.30;;;;;;5055575;28;20019;-62
2023/12/15 05:40:59;;;;;;;;;;;19.60;56.30;;;;;;5055654;28;19925;-63
2023/12/15 05:43:24;;;;;;;;;;;19.60;56.30;;;;;;5038605;28;19967;-62
2023/12/15 05:45:50;;;;;;;;;;;19.70;56.30;;;;;;5055567;28;19976;-62
2023/12/15 05:48:16;;;;;;;;;;;19.60;56.20;;;;;;5055388;28;19921;-62
2023/12/15 05:50:41;;;;;;;;;;;19.60;56.20;;;;;;5056331;28;19925;-62
2023/12/15 05:53:07;;;;;;;;;;;19.70;56.30;;;;;;5056389;28;20340;-62
2023/12/15 05:55:32;;;;;;;;;;;19.70;56.20;;;;;;5046207;28;19926;-62
2023/12/15 05:57:58;;;;;;;;;;;19.70;56.20;;;;;;5035220;28;20297;-62
2023/12/15 06:00:23;;;;;;;;;;;19.70;56.20;;;;;;5053014;28;20066;-62
2023/12/15 06:02:49;;;;;;;;;;;19.70;56.30;;;;;;5054352;28;19931;-62
2023/12/15 06:05:17;;;;;;;;;;;19.70;56.20;;;;;;5055776;28;19951;-62
2023/12/15 06:07:43;;;;;;;;;;;19.70;56.20;;;;;;5055456;28;19948;-62
2023/12/15 06:10:08;;;;;;;;;;;19.70;56.20;;;;;;5039869;28;20373;-62
2023/12/15 06:12:34;;;;;;;;;;;19.70;56.20;;;;;;5035056;28;19980;-62
2023/12/15 06:14:59;;;;;;;;;;;19.70;56.20;;;;;;5034763;28;19933;-62
2023/12/15 06:17:25;;;;;;;;;;;19.70;56.20;;;;;;5035130;28;19972;-62
2023/12/15 06:19:50;;;;;;;;;;;19.80;56.30;;;;;;5051857;28;20303;-62
2023/12/15 06:22:15;;;;;;;;;;;19.80;56.30;;;;;;5051934;28;19925;-62
2023/12/15 06:24:41;;;;;;;;;;;19.80;56.20;;;;;;5052683;28;19924;-62
2023/12/15 06:27:06;;;;;;;;;;;19.80;56.20;;;;;;5067916;28;20007;-62
2023/12/15 06:29:32;;;;;;;;;;;19.80;56.20;;;;;;5056508;28;19924;-63
2023/12/15 06:31:58;;;;;;;;;;;19.80;56.90;;;;;;5075443;28;19920;-61
2023/12/15 06:34:23;;;;;;;;;;;19.80;56.20;;;;;;5075461;28;20026;-62
2023/12/15 06:36:49;;;;;;;;;;;19.80;56.20;;;;;;5056531;28;19928;-66
2023/12/15 06:39:14;;;;;;;;;;;19.80;56.20;;;;;;5057509;28;20417;-61
2023/12/15 06:41:40;;;;;;;;;;;19.80;56.20;;;;;;5073584;28;19931;-61
2023/12/15 06:44:06;;;;;;;;;;;19.80;56.20;;;;;;5066629;28;20342;-61
2023/12/15 06:46:34;;;;;;;;;;;19.80;56.10;;;;;;5075554;28;19925;-61
2023/12/15 06:49:00;;;;;;;;;;;19.80;56.10;;;;;;5057547;28;19925;-61
2023/12/15 06:51:26;;;;;;;;;;;19.80;56.20;;;;;;5064408;28;19940;-60
2023/12/15 06:53:51;;;;;;;;;;;19.80;56.40;;;;;;5054968;28;20448;-60
2023/12/15 06:56:17;;;;;;;;;;;19.80;56.50;;;;;;5055118;28;19931;-60
2023/12/15 06:58:42;;;;;;;;;;;19.80;56.50;;;;;;5036746;28;19950;-60
2023/12/15 07:01:08;;;;;;;;;;;19.90;56.80;;;;;;5037145;28;19925;-60
2023/12/15 07:03:33;;;;;;;;;;;19.90;56.80;;;;;;5037019;28;19925;-60
2023/12/15 07:05:59;;;;;;;;;;;19.90;56.90;;;;;;5036237;28;19925;-60
2023/12/15 07:08:24;;;;;;;;;;;19.90;56.90;;;;;;5055139;28;19971;-60
2023/12/15 07:10:50;;;;;;;;;;;19.90;57.00;;;;;;5036381;28;19924;-60
2023/12/15 07:13:16;;;;;;;;;;;19.90;57.00;;;;;;5037118;28;19932;-59
2023/12/15 07:15:41;;;;;;;;;;;19.90;57.00;;;;;;5055315;28;19932;-60
2023/12/15 07:18:06;;;;;;;;;;;19.90;57.10;;;;;;5054268;28;19955;-60
2023/12/15 07:20:33;;;;;;;;;;;19.90;57.00;;;;;;5054989;28;20381;-60
2023/12/15 07:22:58;;;;;;;;;;;19.90;57.00;;;;;;5054440;28;20391;-59
2023/12/15 07:25:26;;;;;;;;;;;20.00;57.10;;;;;;5035715;28;19964;-59
2023/12/15 07:27:53;;;;;;;;;;;20.00;57.20;;;;;;5054624;28;19925;-60
2023/12/15 07:30:19;;;;;;;;;;;20.00;57.10;;;;;;5054988;28;19929;-59
2023/12/15 07:32:44;;;;;;;;;;;20.00;57.10;;;;;;5054128;28;19932;-59
2023/12/15 07:35:10;;;;;;;;;;;20.00;57.20;;;;;;5054637;28;20023;-60
2023/12/15 07:37:35;;;;;;;;;;;20.00;57.20;;;;;;5054538;28;19971;-59
2023/12/15 07:40:03;;;;;;;;;;;20.00;57.20;;;;;;5035687;28;19925;-59
2023/12/15 07:42:29;;;;;;;;;;;20.00;57.10;;;;;;5054427;28;19924;-59
2023/12/15 07:44:54;;;;;;;;;;;20.00;57.10;;;;;;5054036;28;19935;-60
2023/12/15 07:47:20;;;;;;;;;;;20.00;57.10;;;;;;5035682;28;19925;-60
2023/12/15 07:49:45;;;;;;;;;;;20.00;57.20;;;;;;5054499;28;20044;-61
2023/12/15 07:52:11;;;;;;;;;;;20.00;57.20;;;;;;5053983;28;19929;-61
2023/12/15 07:54:36;;;;;;;;;;;20.00;57.20;;;;;;5046381;28;19925;-61
2023/12/15 07:57:02;;;;;;;;;;;20.10;57.30;;;;;;5056117;28;19946;-59
2023/12/15 07:59:27;;;;;;;;;;;20.10;58.00;;;;;;5074155;28;20007;-59
2023/12/15 08:01:55;;;;;;;;;;;20.10;57.30;;;;;;5055047;28;19924;-59
2023/12/15 08:04:20;;;;;;;;;;;20.00;57.30;;;;;;5055605;28;19929;-59
2023/12/15 08:06:46;;;;;;;;;;;20.10;57.40;;;;;;5054199;28;20034;-59
2023/12/15 08:09:11;;;;;;;;;;;20.10;57.50;;;;;;5052839;28;19971;-59
2023/12/15 08:11:37;;;;;;;;;;;20.10;57.40;;;;;;5036029;28;20391;-59
2023/12/15 08:14:03;;;;;;;;;;;20.10;57.50;;;;;;5053625;28;19920;-59
2023/12/15 08:16:29;;;;;;;;;;;20.10;57.40;;;;;;5049711;28;20408;-60
2023/12/15 08:18:54;;;;;;;;;;;20.10;57.50;;;;;;5035852;28;19928;-60
2023/12/15 08:21:19;;;;;;;;;;;20.10;57.50;;;;;;5039991;28;19931;-60
2023/12/15 08:23:45;;;;;;;;;;;20.10;57.70;;;;;;5073365;28;19925;-59
2023/12/15 08:26:18;;;;;;;;;;;20.10;57.60;;;;;;5072647;28;20524;-59
2023/12/15 08:28:44;;;;;;;;;;;20.10;57.70;;;;;;5072967;28;19994;-60
2023/12/15 08:31:10;;;;;;;;;;;20.10;57.80;;;;;;5055312;28;20319;-60
2023/12/15 08:33:35;;;;;;;;;;;20.10;58.00;;;;;;5073302;28;20395;-59
2023/12/15 08:36:01;;;;;;;;;;;20.10;57.90;;;;;;5072292;28;19932;-60
2023/12/15 08:38:26;;;;;;;;;;;20.10;57.90;;;;;;5055224;28;19981;-60
2023/12/15 08:40:52;;;;;;;;;;;20.10;57.90;;;;;;5054809;28;19924;-60
2023/12/15 08:43:18;;;;;;;;;;;20.20;58.00;;;;;;5054303;28;19924;-59
2023/12/15 08:45:43;;;;;;;;;;;20.20;58.10;;;;;;5054957;28;19925;-60
2023/12/15 08:48:09;;;;;;;;;;;20.20;58.00;;;;;;5054970;28;19964;-60
2023/12/15 08:50:34;;;;;;;;;;;20.20;58.10;;;;;;5054168;28;19928;-60
2023/12/15 08:53:00;;;;;;;;;;;20.20;58.10;;;;;;5072908;28;19971;-60
2023/12/15 08:55:25;;;;;;;;;;;20.20;58.10;;;;;;5072828;28;19925;-60
2023/12/15 08:57:51;;;;;;;;;;;20.20;58.10;;;;;;5054080;28;19924;-61
2023/12/15 09:00:17;;;;;;;;;;;20.20;58.20;;;;;;5059038;28;20292;-60
2023/12/15 09:02:42;;;;;;;;;;;20.20;58.20;;;;;;5067368;28;20338;-61
2023/12/15 09:05:08;;;;;;;;;;;20.20;58.20;;;;;;5054310;28;19932;-60
2023/12/15 09:07:34;;;;;;;;;;;20.20;58.40;;;;;;5072739;28;19932;-60
2023/12/15 09:09:59;;;;;;;;;;;20.20;58.30;;;;;;5054845;28;19924;-60
2023/12/15 09:12:25;;;;;;;;;;;20.20;58.30;;;;;;5060123;28;20387;-60
2023/12/15 09:14:50;;;;;;;;;;;20.20;58.40;;;;;;5044586;28;19924;-60
2023/12/15 09:17:16;;;;;;;;;;;20.20;58.50;;;;;;5060589;28;20386;-60
2023/12/15 09:19:42;;;;;;;;;;;20.20;58.40;;;;;;5061952;28;20356;-60
2023/12/15 09:22:08;;;;;;;;;;;20.20;58.40;;;;;;5058802;28;19932;-60
2023/12/15 09:24:36;;;;;;;;;;;20.20;58.50;;;;;;5060880;28;19925;-60
2023/12/15 09:27:01;;;;;;;;;;;20.20;58.50;;;;;;5061588;28;20019;-60
2023/12/15 09:29:27;;;;;;;;;;;20.20;58.60;;;;;;5062954;28;20039;-60
2023/12/15 09:31:52;;;;;;;;;;;20.20;58.60;;;;;;5059710;28;20391;-62
2023/12/15 09:34:19;;;;;;;;;;;20.20;58.60;;;;;;5044619;28;19925;-62
2023/12/15 09:36:45;;;;;;;;;;;20.20;58.50;;;;;;5043340;28;19929;-62
2023/12/15 09:39:11;;;;;;;;;;;20.20;58.40;;;;;;5043878;28;20293;-62
2023/12/15 09:41:36;;;;;;;;;;;20.20;58.30;;;;;;5042184;28;19952;-61
2023/12/15 09:44:02;;;;;;;;;;;20.20;58.30;;;;;;5043667;28;19947;-62
2023/12/15 09:46:28;;;;;;;;;;;20.20;58.30;;;;;;5041620;28;20285;-61
2023/12/15 09:48:53;;;;;;;;;;;20.20;58.30;;;;;;5041990;28;19936;-62
2023/12/15 09:51:23;;;;;;;;;;;20.20;58.20;;;;;;5024052;28;19960;-61
2023/12/15 09:53:48;;;;;;;;;;;20.20;58.30;;;;;;5064530;28;19978;-61
2023/12/15 09:56:14;;;;;;;;;;;20.20;58.20;;;;;;5069481;28;19924;-60
2023/12/15 09:58:40;;;;;;;;;;;20.20;58.10;;;;;;5028049;28;19924;-61
2023/12/15 10:01:05;;;;;;;;;;;20.10;58.00;;;;;;5042028;28;19929;-63
2023/12/15 10:03:31;;;;;;;;;;;20.10;58.00;;;;;;5062575;28;19950;-60
2023/12/15 10:05:57;;;;;;;;;;;20.10;58.00;;;;;;5044678;28;20003;-61
2023/12/15 10:08:24;;;;;;;;;;;20.10;58.00;;;;;;5069553;28;20007;-61
2023/12/15 10:10:49;;;;;;;;;;;20.10;57.90;;;;;;5072332;28;19931;-61
2023/12/15 10:13:15;;;;;;;;;;;20.10;57.90;;;;;;5050746;28;19929;-61
2023/12/15 10:15:41;;;;;;;;;;;20.10;58.00;;;;;;5051633;28;19924;-61
2023/12/15 10:18:06;;;;;;;;;;;20.10;58.70;;;;;;5055164;28;20000;-61
2023/12/15 10:20:32;;;;;;;;;;;20.10;57.90;;;;;;5058222;28;19925;-61
2023/12/15 10:23:04;;;;;;;;;;;20.00;57.90;;;;;;5075000;28;19928;-61
2023/12/15 10:25:31;;;;;;;;;;;20.00;57.80;;;;;;5075970;28;19931;-61
2023/12/15 10:27:56;;;;;;;;;;;20.10;58.00;;;;;;5045830;28;20013;-62
2023/12/15 10:30:22;;;;;;;;;;;20.00;57.80;;;;;;5044389;28;19963;-61
2023/12/15 10:32:48;;;;;;;;;;;20.00;57.90;;;;;;5049382;28;20384;-61
2023/12/15 10:35:13;;;;;;;;;;;20.00;57.90;;;;;;5045289;28;19924;-60
2023/12/15 10:37:41;;;;;;;;;;;20.00;57.90;;;;;;5048287;28;19925;-70
2023/12/15 10:40:07;;;;;;;;;;;20.00;57.80;;;;;;5042162;28;19931;-60
2023/12/15 10:42:32;;;;;;;;;;;20.00;58.00;;;;;;5062809;28;20375;-60
2023/12/15 10:44:58;;;;;;;;;;;20.00;58.20;;;;;;5029629;28;19925;-60
2023/12/15 10:47:24;;;;;;;;;;;20.00;58.90;;;;;;5064972;28;19925;-60
2023/12/15 10:49:50;;;;;;;;;;;20.00;58.30;;;;;;5062643;28;19933;-60
2023/12/15 10:52:16;;;;;;;;;;;20.00;58.30;;;;;;5063021;28;20300;-60
2023/12/15 10:54:42;;;;;;;;;;;20.00;58.40;;;;;;5061896;28;19925;-59
2023/12/15 10:57:10;;;;;;;;;;;20.00;58.40;;;;;;5046957;28;19983;-60
2023/12/15 10:59:37;;;;;;;;;;;20.00;57.80;;;;;;5041977;28;19935;-59
2023/12/15 11:02:02;;;;;;;;;;;20.00;57.60;;;;;;5064025;28;20368;-58
2023/12/15 11:04:28;;;;;;;;;;;20.00;57.70;;;;;;5061978;28;19925;-59
2023/12/15 11:06:55;;;;;;;;;;;20.00;57.80;;;;;;5064899;28;20295;-60
2023/12/15 11:09:32;;;;;;;;;;;20.00;57.90;;;;;;5064542;28;19952;-59
2023/12/15 11:12:23;;;;;;;;;;;20.00;57.90;;;;;;5061861;28;19932;-60
2023/12/15 11:14:58;;;;;;;;;;;20.00;58.00;;;;;;5051825;28;19924;-60
2023/12/15 11:17:24;;;;;;;;;;;20.00;58.00;;;;;;5063264;28;19964;-60
2023/12/15 11:19:52;;;;;;;;;;;20.00;58.10;;;;;;5047778;28;19979;-60
2023/12/15 11:22:18;;;;;;;;;;;20.00;58.10;;;;;;5043065;28;20296;-59
2023/12/15 11:24:44;;;;;;;;;;;20.00;58.10;;;;;;5062943;28;19939;-59
2023/12/15 11:27:15;;;;;;;;;;;20.00;58.10;;;;;;5044463;28;19972;-59
2023/12/15 11:29:40;;;;;;;;;;;20.00;58.10;;;;;;5073711;28;19925;-59
2023/12/15 11:32:25;;;;;;;;;;;20.00;58.10;;;;;;5055913;28;19950;-59
2023/12/15 11:34:50;;;;;;;;;;;20.00;58.10;;;;;;5074706;28;20372;-59
2023/12/15 11:37:16;;;;;;;;;;;20.00;58.80;;;;;;5056668;28;19931;-59
2023/12/15 11:39:41;;;;;;;;;;;20.00;58.40;;;;;;5056065;28;20016;-59
2023/12/15 11:42:07;;;;;;;;;;;19.90;59.00;;;;;;5039470;28;19979;-59
2023/12/15 11:44:33;;;;;;;;;;;19.90;58.80;;;;;;5074469;28;19925;-59
2023/12/15 11:46:59;;;;;;;;;;;19.90;58.60;;;;;;5055479;28;19925;-59
2023/12/15 11:49:24;;;;;;;;;;;19.90;58.60;;;;;;5073887;28;19925;-59
2023/12/15 11:51:50;;;;;;;;;;;19.90;58.80;;;;;;5056314;28;19990;-59
2023/12/15 11:54:16;;;;;;;;;;;19.90;58.70;;;;;;5055222;28;20432;-60
2023/12/15 11:56:41;;;;;;;;;;;19.90;58.60;;;;;;5074067;28;19928;-61
2023/12/15 11:59:07;;;;;;;;;;;19.90;58.60;;;;;;5056278;28;20024;-60
2023/12/15 12:01:36;;;;;;;;;;;19.90;58.60;;;;;;5055395;28;19925;-61
2023/12/15 12:04:01;;;;;;;;;;;19.90;58.60;;;;;;5041219;28;19925;-60
2023/12/15 12:06:27;;;;;;;;;;;19.90;58.60;;;;;;5066751;28;19974;-69
2023/12/15 12:08:52;;;;;;;;;;;19.90;58.60;;;;;;5042373;28;20262;-61
2023/12/15 12:11:18;;;;;;;;;;;19.90;58.60;;;;;;5039550;28;19924;-62
2023/12/15 12:13:43;;;;;;;;;;;19.90;58.60;;;;;;5073075;28;19925;-61
2023/12/15 12:16:09;;;;;;;;;;;19.90;58.70;;;;;;5055537;28;19977;-61
2023/12/15 12:18:34;;;;;;;;;;;19.90;58.70;;;;;;5073687;28;19928;-61
2023/12/15 12:21:07;;;;;;;;;;;19.80;58.60;;;;;;5072476;28;19928;-61
2023/12/15 12:23:32;;;;;;;;;;;19.90;58.70;;;;;;5055011;28;19967;-61
2023/12/15 12:25:58;;;;;;;;;;;19.80;58.60;;;;;;5072863;28;20296;-61
2023/12/15 12:28:47;;;;;;;;;;;19.80;58.60;;;;;;5072954;28;19970;-61
2023/12/15 12:31:14;;;;;;;;;;;19.80;58.60;;;;;;5055415;28;19929;-61
2023/12/15 12:33:40;;;;;;;;;;;19.90;58.60;;;;;;5054845;28;19920;-61
2023/12/15 12:36:07;;;;;;;;;;;19.80;58.50;;;;;;5054538;28;19977;-61
2023/12/15 12:38:33;;;;;;;;;;;19.80;58.60;;;;;;5054914;28;19992;-61
2023/12/15 12:41:02;;;;;;;;;;;19.80;58.50;;;;;;5072275;28;20447;-61
2023/12/15 12:43:28;;;;;;;;;;;19.80;58.60;;;;;;5054758;28;19925;-61
2023/12/15 12:45:54;;;;;;;;;;;19.80;58.60;;;;;;5073120;28;19920;-61
2023/12/15 12:48:19;;;;;;;;;;;19.80;58.60;;;;;;5055383;28;20369;-61
2023/12/15 12:50:45;;;;;;;;;;;19.80;58.60;;;;;;5054640;28;19928;-61
2023/12/15 12:53:11;;;;;;;;;;;19.80;58.50;;;;;;5072911;28;19973;-61
2023/12/15 12:55:37;;;;;;;;;;;19.80;58.50;;;;;;5072067;28;19930;-61
2023/12/15 12:58:02;;;;;;;;;;;19.80;58.50;;;;;;5073077;28;19931;-61
2023/12/15 13:00:28;;;;;;;;;;;19.80;58.50;;;;;;5069796;28;19924;-61
2023/12/15 13:02:53;;;;;;;;;;;19.80;58.50;;;;;;5074529;28;19926;-62
2023/12/15 13:05:19;;;;;;;;;;;19.80;58.40;;;;;;5058352;28;20003;-61
2023/12/15 13:07:46;;;;;;;;;;;19.90;58.50;;;;;;5093239;28;19928;-61
2023/12/15 13:10:14;;;;;;;;;;;19.90;58.40;;;;;;5073825;28;20027;-61
2023/12/15 13:12:42;;;;;;;;;;;19.90;58.40;;;;;;5093227;28;19920;-61
2023/12/15 13:15:09;;;;;;;;;;;19.90;58.40;;;;;;5043844;28;19925;-61
2023/12/15 13:17:35;;;;;;;;;;;19.90;58.30;;;;;;5054613;28;20015;-61
2023/12/15 13:20:00;;;;;;;;;;;19.90;59.00;;;;;;5055269;28;20015;-59
2023/12/15 13:22:28;;;;;;;;;;;19.90;58.40;;;;;;5054043;28;20020;-59
2023/12/15 13:24:53;;;;;;;;;;;19.90;59.20;;;;;;5056699;28;20284;-59
2023/12/15 13:27:19;;;;;;;;;;;19.90;58.50;;;;;;5071998;28;19924;-59
2023/12/15 13:29:46;;;;;;;;;;;20.00;58.60;;;;;;5066275;28;20026;-59
2023/12/15 13:32:13;;;;;;;;;;;20.00;58.70;;;;;;5051641;28;20348;-59
2023/12/15 13:34:39;;;;;;;;;;;20.00;58.70;;;;;;5037368;28;19939;-61
2023/12/15 13:37:04;;;;;;;;;;;20.00;58.80;;;;;;5072728;28;19920;-61
2023/12/15 13:39:30;;;;;;;;;;;20.00;58.70;;;;;;5037179;28;19967;-61
2023/12/15 13:41:55;;;;;;;;;;;20.00;58.90;;;;;;5041821;28;19929;-60
2023/12/15 13:44:21;;;;;;;;;;;20.10;59.00;;;;;;5035322;28;20026;-60
2023/12/15 13:46:52;;;;;;;;;;;20.10;58.90;;;;;;5051227;28;19932;-60
2023/12/15 13:49:17;;;;;;;;;;;20.10;58.90;;;;;;5034592;28;20436;-60
2023/12/15 13:51:43;;;;;;;;;;;20.10;58.80;;;;;;5034243;28;20024;-60
2023/12/15 13:54:09;;;;;;;;;;;20.10;58.90;;;;;;5056207;28;19932;-61
2023/12/15 13:56:35;;;;;;;;;;;20.10;58.90;;;;;;5056299;28;20388;-60
2023/12/15 13:59:01;;;;;;;;;;;20.10;58.90;;;;;;5020970;28;19924;-60
2023/12/15 14:01:26;;;;;;;;;;;20.10;58.90;;;;;;5056218;28;19971;-60
2023/12/15 14:03:52;;;;;;;;;;;20.10;58.80;;;;;;5055276;28;19925;-60
2023/12/15 14:06:18;;;;;;;;;;;20.10;58.90;;;;;;5055436;28;19925;-61
2023/12/15 14:08:43;;;;;;;;;;;20.10;58.80;;;;;;5038426;28;19921;-60